Data for 12/07/2014

Time Sea-Level Adjusted Pressure Absolute Pressure Temperature Relative Humidity Dew Point   
(mb) (inHg) (mb) (inHg) (C) (F) (%) (C) (F)
00:05 1022 30.18 851 25.13 5.2 41.3 50 -4.3 24.2
00:10 1022 30.18 851 25.13 5.2 41.4 50 -4.5 23.9
00:15 1022 30.18 851 25.13 5.1 41.3 48 -5 23.1
00:20 1022 30.18 851 25.13 5.3 41.5 45 -5.7 21.8
00:25 1022 30.18 851 25.13 5.6 42.1 44 -5.6 22
00:30 1022 30.18 851 25.13 5.7 42.3 46 -5.1 22.8
00:35 1022 30.18 851 25.13 5.2 41.3 51 -4.1 24.6
00:40 1022 30.18 851 25.13 4.7 40.5 51 -4.4 24
00:45 1022 30.18 851 25.13 4.8 40.7 49 -4.9 23.2
00:50 1022 30.18 851 25.13 5.1 41.2 45 -5.9 21.5
00:55 1022 30.18 851 25.13 5.6 42.1 42 -6.4 20.4
01:00 1022 30.18 851 25.13 5.9 42.6 43 -5.7 21.7
01:05 1022 30.18 851 25.13 5.8 42.4 44 -5.6 21.9
01:10 1022 30.18 851 25.13 5.7 42.2 43 -5.9 21.3
01:15 1022 30.18 851 25.13 5.7 42.3 43 -5.7 21.7
01:20 1022 30.18 851 25.13 5.6 42.1 43 -5.9 21.3
01:25 1022 30.18 851 25.13 5.6 42.1 44 -5.7 21.8
01:30 1022 30.18 851 25.13 5.4 41.7 46 -5.4 22.2
01:35 1022 30.18 851 25.13 5.3 41.5 46 -5.5 22.2
01:40 1022 30.18 851 25.13 5.1 41.1 45 -5.9 21.4
01:45 1022 30.18 851 25.13 5.2 41.3 44 -6 21.3
01:50 1022 30.18 851 25.13 5.3 41.5 44 -6 21.3
01:55 1022 30.18 851 25.13 5.3 41.6 40 -7.2 19.1
02:00 1022 30.18 851 25.13 5.8 42.5 41 -6.5 20.3
02:05 1022 30.18 851 25.13 5.8 42.5 40 -6.6 20.1
02:10 1022 30.18 851 25.13 5.8 42.4 41 -6.5 20.2
02:15 1022 30.18 851 25.13 5.8 42.4 39 -7 19.4
02:20 1022 30.18 851 25.13 5.9 42.5 41 -6.5 20.4
02:25 1022 30.18 852 25.16 5.9 42.6 40 -6.7 19.9
02:30 1022 30.18 852 25.16 5.9 42.6 40 -6.7 19.9
02:35 1022 30.18 852 25.16 5.8 42.5 40 -6.7 20
02:40 1022 30.18 852 25.16 5.7 42.3 42 -6.1 20.9
02:45 1022 30.18 852 25.16 5.8 42.5 39 -7.3 18.9
02:50 1022 30.18 852 25.16 6 42.8 38 -7.4 18.8
02:55 1022 30.18 852 25.16 6.1 43 38 -7.2 19.1
03:00 1022 30.18 852 25.16 6.1 43 37 -7.6 18.4
03:05 1022 30.18 852 25.16 6.1 43 38 -7.1 19.2
03:10 1023 30.21 852 25.16 6 42.9 38 -7.2 19
03:15 1023 30.21 852 25.16 6.1 42.9 38 -7.2 19.1
03:20 1023 30.21 852 25.16 6.1 42.9 37 -7.5 18.6
03:25 1023 30.21 852 25.16 6.2 43.2 38 -7.2 19.1
03:30 1023 30.21 852 25.16 6.1 43 39 -6.8 19.7
03:35 1023 30.21 852 25.16 6.1 42.9 39 -6.8 19.7
03:40 1023 30.21 852 25.16 5.8 42.5 42 -6 21.2
03:45 1023 30.21 852 25.16 5.7 42.2 40 -7 19.4
03:50 1023 30.21 852 25.16 5.9 42.7 40 -6.7 19.9
03:55 1023 30.21 852 25.16 5.8 42.4 41 -6.6 20.2
04:00 1023 30.21 852 25.16 5.8 42.5 40 -6.8 19.7
04:05 1023 30.21 852 25.16 5.8 42.4 41 -6.4 20.5
04:10 1023 30.21 852 25.16 5.6 42.1 42 -6.2 20.9
04:15 1023 30.21 852 25.16 5.4 41.7 44 -5.9 21.4
04:20 1023 30.21 853 25.19 5.4 41.6 41 -6.7 19.9
04:25 1023 30.21 853 25.19 5.6 42.1 39 -7.3 18.8
04:30 1023 30.21 853 25.19 5.7 42.2 42 -6.4 20.5
04:35 1024 30.24 853 25.19 5.4 41.7 42 -6.6 20.2
04:40 1024 30.24 853 25.19 5.4 41.7 42 -6.4 20.5
04:45 1024 30.24 853 25.19 5.4 41.7 42 -6.4 20.5
04:50 1024 30.24 853 25.19 5.3 41.6 44 -6 21.2
04:55 1024 30.24 853 25.19 5.2 41.3 44 -6.2 20.8
05:00 1024 30.24 853 25.19 5.2 41.3 44 -6.1 21.1
05:05 1024 30.24 853 25.19 5.1 41.2 44 -6.1 21.1
05:10 1024 30.24 853 25.19 5.1 41.2 45 -6 21.3
05:15 1024 30.24 853 25.19 5 41 45 -6 21.3
05:20 1024 30.24 853 25.19 4.9 40.9 45 -5.9 21.4
05:25 1024 30.24 853 25.19 5 41 43 -6.6 20
05:30 1024 30.24 853 25.19 5.3 41.5 41 -7.1 19.3
05:35 1024 30.24 853 25.19 5.4 41.7 41 -6.7 19.9
05:40 1024 30.24 853 25.19 5.3 41.6 42 -6.5 20.3
05:45 1024 30.24 853 25.19 5.3 41.5 40 -7.1 19.2
05:50 1024 30.24 854 25.22 5.3 41.5 43 -6.4 20.5
05:55 1024 30.24 854 25.22 5 41.1 43 -6.5 20.3
06:00 1024 30.24 854 25.22 5 41.1 44 -6.2 20.9
06:05 1025 30.27 854 25.22 4.9 40.8 46 -5.7 21.8
06:10 1025 30.27 854 25.22 4.6 40.3 47 -5.8 21.5
06:15 1025 30.27 854 25.22 4.6 40.2 46 -6 21.1
06:20 1025 30.27 854 25.22 4.6 40.3 47 -5.9 21.4
06:25 1025 30.27 854 25.22 4.4 40 46 -6.3 20.6
06:30 1025 30.27 854 25.22 4.6 40.3 45 -6.3 20.6
06:35 1025 30.27 854 25.22 4.7 40.5 44 -6.6 20.2
06:40 1025 30.27 854 25.22 4.8 40.7 45 -6.2 20.9
06:45 1024 30.24 854 25.22 4.7 40.5 46 -6 21.1
06:50 1024 30.24 854 25.22 4.6 40.3 45 -6.2 20.8
06:55 1025 30.27 854 25.22 4.5 40.2 46 -6 21.2
07:00 1024 30.24 854 25.22 4.5 40.1 46 -6 21.1
07:05 1024 30.24 854 25.22 4.6 40.2 45 -6.3 20.6
07:10 1025 30.27 854 25.22 4.7 40.5 46 -6 21.3
07:15 1025 30.27 854 25.22 4.5 40.1 47 -5.9 21.3
07:20 1025 30.27 854 25.22 4.4 39.9 47 -5.9 21.3
07:25 1025 30.27 854 25.22 4.3 39.7 47 -6 21.2
07:30 1024 30.24 854 25.22 4.2 39.6 47 -6.1 21.1
07:35 1024 30.24 854 25.22 4.2 39.6 46 -6.5 20.4
07:40 1024 30.24 854 25.22 4.3 39.7 46 -6.5 20.3
07:45 1025 30.27 854 25.22 4.2 39.6 45 -6.7 19.9
07:50 1025 30.27 854 25.22 4.2 39.5 45 -6.6 20.1
07:55 1025 30.27 854 25.22 4.1 39.5 45 -6.8 19.7
08:00 1025 30.27 854 25.22 4.2 39.5 44 -7 19.5
08:05 1025 30.27 854 25.22 4.3 39.8 44 -6.8 19.8
08:10 1025 30.27 854 25.22 4.3 39.8 43 -7.2 19.1
08:15 1025 30.27 854 25.22 4.4 40 43 -7 19.4
08:20 1025 30.27 854 25.22 4.3 39.7 44 -6.8 19.8
08:25 1025 30.27 854 25.22 4.3 39.8 42 -7.4 18.6
08:30 1025 30.27 854 25.22 4.6 40.3 41 -7.4 18.7
08:35 1025 30.27 854 25.22 4.7 40.4 41 -7.4 18.6
08:40 1025 30.27 854 25.22 4.8 40.7 40 -7.5 18.5
08:45 1025 30.27 855 25.25 4.6 40.3 45 -6.3 20.6
08:50 1025 30.27 855 25.25 4.1 39.4 47 -6.3 20.7
08:55 1025 30.27 855 25.25 4 39.2 46 -6.6 20.1
09:00 1026 30.3 855 25.25 4.1 39.5 43 -7.4 18.7
09:05 1026 30.3 855 25.25 4.6 40.3 42 -7.3 18.9
09:10 1026 30.3 855 25.25 4.4 40 43 -7 19.4
09:15 1026 30.3 855 25.25 4.4 39.9 42 -7.5 18.5
09:20 1026 30.3 855 25.25 4.5 40.1 42 -7.3 18.9
09:25 1026 30.3 855 25.25 4.6 40.2 40 -8 17.7
09:30 1026 30.3 855 25.25 4.7 40.5 41 -7.5 18.6
09:35 1026 30.3 855 25.25 4.5 40.1 43 -7.1 19.2
09:40 1025 30.27 855 25.25 4.3 39.7 42 -7.4 18.8
09:45 1026 30.3 855 25.25 4.4 39.9 42 -7.4 18.7
09:50 1026 30.3 855 25.25 4.4 39.9 41 -7.8 18
09:55 1026 30.3 855 25.25 4.5 40.2 41 -7.5 18.4
10:00 1026 30.3 855 25.25 4.5 40.1 42 -7.3 18.8
10:05 1026 30.3 855 25.25 4.4 39.9 43 -7.2 19
10:10 1026 30.3 855 25.25 4.3 39.7 44 -7 19.3
10:15 1026 30.3 855 25.25 4.6 40.2 42 -7.1 19.1
10:20 1026 30.3 855 25.25 4.9 40.8 42 -6.9 19.7
10:25 1026 30.3 855 25.25 5.2 41.4 43 -6.3 20.6
10:30 1026 30.3 855 25.25 5.2 41.4 43 -6.2 20.8
10:35 1026 30.3 855 25.25 5.2 41.3 42 -6.6 20
10:40 1026 30.3 855 25.25 5.3 41.5 40 -7.2 19.1
10:45 1026 30.3 855 25.25 5.5 42 39 -7.3 18.9
10:50 1026 30.3 855 25.25 5.8 42.5 40 -6.9 19.6
10:55 1026 30.3 855 25.25 5.6 42.1 41 -6.6 20.2
11:00 1026 30.3 855 25.25 5.7 42.3 40 -6.7 19.9
11:05 1026 30.3 855 25.25 6 42.7 40 -6.7 20
11:10 1026 30.3 855 25.25 6.1 43.1 40 -6.5 20.2
11:15 1026 30.3 855 25.25 6.3 43.3 40 -6.5 20.3
11:20 1026 30.3 856 25.28 6.1 43 40 -6.4 20.5
11:25 1026 30.3 856 25.28 6.3 43.4 40 -6.2 20.9
11:30 1026 30.3 856 25.28 6.1 42.9 41 -6.1 21
11:35 1026 30.3 856 25.28 6.1 43 42 -5.9 21.3
11:40 1026 30.3 856 25.28 5.9 42.7 41 -6.2 20.9
11:45 1027 30.33 856 25.28 6.2 43.2 42 -5.6 21.9
11:50 1027 30.33 856 25.28 6.4 43.5 40 -6.1 21
11:55 1027 30.33 856 25.28 6.3 43.3 41 -5.9 21.3
12:00 1027 30.33 856 25.28 6.3 43.3 40 -6.4 20.5
12:05 1027 30.33 856 25.28 6.7 44.1 39 -6.4 20.5
12:10 1027 30.33 856 25.28 6.6 43.9 40 -6.1 21
12:15 1026 30.3 856 25.28 7 44.6 37 -6.5 20.3
12:20 1026 30.3 856 25.28 7.3 45.2 37 -6.5 20.2
12:25 1026 30.3 856 25.28 6.8 44.3 40 -5.8 21.6
12:30 1026 30.3 856 25.28 6.1 43.1 40 -6.5 20.3
12:35 1026 30.3 855 25.25 6.3 43.3 38 -7 19.4
12:40 1026 30.3 855 25.25 6.9 44.5 38 -6.5 20.3
12:45 1026 30.3 855 25.25 7.1 44.8 37 -6.5 20.3
12:50 1026 30.3 855 25.25 6.8 44.2 35 -7.6 18.3
12:55 1026 30.3 855 25.25 7.5 45.5 35 -7 19.4
13:00 1026 30.3 855 25.25 8 46.4 33 -7.2 19
13:05 1026 30.3 855 25.25 8.8 47.8 32 -7 19.4
13:10 1026 30.3 855 25.25 8.9 48 33 -6.3 20.6
13:15 1026 30.3 855 25.25 7.9 46.2 33 -7.2 19
13:20 1026 30.3 855 25.25 8.1 46.6 34 -6.9 19.7
13:25 1026 30.3 855 25.25 7.9 46.2 33 -7.4 18.8
13:30 1026 30.3 855 25.25 8.5 47.3 33 -6.9 19.5
13:35 1026 30.3 855 25.25 8.7 47.6 32 -6.9 19.5
13:40 1026 30.3 855 25.25 9.1 48.3 32 -6.6 20.1
13:45 1026 30.3 855 25.25 8.9 48.1 33 -6.6 20.1
13:50 1026 30.3 855 25.25 8.9 47.9 33 -6.6 20.2
13:55 1026 30.3 855 25.25 8.3 46.9 33 -6.9 19.6
14:00 1025 30.27 855 25.25 8.1 46.6 35 -6.3 20.7
14:05 1025 30.27 855 25.25 8.2 46.7 33 -7 19.5
14:10 1025 30.27 855 25.25 8.2 46.7 33 -6.9 19.5
14:15 1025 30.27 855 25.25 7.9 46.3 34 -7.1 19.2
14:20 1025 30.27 854 25.22 8.4 47 32 -7.3 18.9
14:25 1025 30.27 854 25.22 8.4 47.1 33 -6.9 19.6
14:30 1025 30.27 854 25.22 8.2 46.8 32 -7.5 18.6
14:35 1025 30.27 854 25.22 9 48.1 32 -6.8 19.7
14:40 1025 30.27 854 25.22 7.9 46.3 33 -7.3 18.8
14:45 1025 30.27 854 25.22 8.7 47.6 32 -7.1 19.1
14:50 1025 30.27 854 25.22 9.1 48.4 32 -6.8 19.8
14:55 1025 30.27 854 25.22 9.2 48.6 32 -6.8 19.7
15:00 1025 30.27 854 25.22 9.1 48.5 30 -7.4 18.7
15:05 1025 30.27 854 25.22 8.1 46.6 33 -7.2 19.1
15:10 1025 30.27 854 25.22 7.9 46.3 32 -7.9 17.8
15:15 1025 30.27 854 25.22 8.4 47.1 32 -7.4 18.7
15:20 1025 30.27 854 25.22 8.4 47.1 32 -7.2 19.1
15:25 1025 30.27 854 25.22 8.1 46.6 31 -7.8 18
15:30 1025 30.27 854 25.22 9.2 48.5 30 -7.6 18.3
15:35 1025 30.27 854 25.22 9.7 49.5 29 -7.4 18.6
15:40 1025 30.27 854 25.22 9.6 49.3 29 -7.4 18.7
15:45 1025 30.27 854 25.22 9.6 49.2 30 -7.2 19.1
15:50 1025 30.27 854 25.22 9.6 49.2 30 -7.2 19
15:55 1025 30.27 854 25.22 9.5 49.1 30 -7.1 19.2
16:00 1025 30.27 854 25.22 9.4 48.9 30 -7.4 18.6
16:05 1025 30.27 854 25.22 9.5 49 29 -7.6 18.2
16:10 1025 30.27 854 25.22 9.5 49.1 30 -7.2 19
16:15 1025 30.27 854 25.22 9.2 48.6 31 -6.9 19.6
16:20 1025 30.27 854 25.22 9.3 48.7 30 -7.4 18.7
16:25 1025 30.27 854 25.22 9.3 48.8 30 -7.2 19.1
16:30 1025 30.27 854 25.22 8.9 48 31 -7.2 19.1
16:35 1025 30.27 854 25.22 8.9 47.9 31 -7.5 18.5
16:40 1025 30.27 854 25.22 8.8 47.8 32 -7.2 19.1
16:45 1025 30.27 854 25.22 8.8 47.8 31 -7.4 18.7
16:50 1025 30.27 854 25.22 8.8 47.8 31 -7.5 18.6
16:55 1025 30.27 854 25.22 8.5 47.3 31 -7.6 18.3
17:00 1025 30.27 854 25.22 8.4 47.1 32 -7.5 18.5
17:05 1025 30.27 854 25.22 8.2 46.7 32 -7.5 18.4
17:10 1025 30.27 854 25.22 7.4 45.3 35 -7.2 19
17:15 1025 30.27 854 25.22 7.1 44.8 35 -7.4 18.7
17:20 1025 30.27 854 25.22 6.8 44.3 36 -7.4 18.7
17:25 1025 30.27 854 25.22 6.7 44.1 37 -6.8 19.7
17:30 1025 30.27 854 25.22 6.3 43.4 42 -5.7 21.7
17:35 1025 30.27 854 25.22 5.5 41.9 48 -4.8 23.4
17:40 1025 30.27 854 25.22 4.7 40.4 50 -4.9 23.2
17:45 1025 30.27 854 25.22 4.2 39.6 51 -5 23
17:50 1025 30.27 854 25.22 3.9 38.9 52 -5.1 22.9
17:55 1025 30.27 854 25.22 3.6 38.4 54 -5 23.1
18:00 1025 30.27 854 25.22 3.3 38 54 -5.1 22.9
18:05 1025 30.27 854 25.22 2.9 37.3 55 -5.2 22.6
18:10 1025 30.27 854 25.22 2.8 37 55 -5.3 22.5
18:15 1025 30.27 854 25.22 2.6 36.6 55 -5.5 22
18:20 1025 30.27 854 25.22 2.6 36.6 55 -5.6 21.9
18:25 1025 30.27 855 25.25 2.5 36.6 55 -5.5 22
18:30 1025 30.27 855 25.25 2.5 36.6 56 -5.4 22.3
18:35 1025 30.27 855 25.25 2.4 36.3 56 -5.6 21.9
18:40 1025 30.27 855 25.25 2.1 35.9 56 -5.7 21.8
18:45 1025 30.27 855 25.25 2.2 35.9 56 -5.8 21.5
18:50 1026 30.3 855 25.25 2.1 35.7 55 -5.9 21.3
18:55 1026 30.3 855 25.25 1.9 35.5 56 -5.9 21.4
19:00 1025 30.27 855 25.25 1.7 35 57 -5.9 21.3
19:05 1025 30.27 855 25.25 1.4 34.5 59 -5.7 21.7
19:10 1025 30.27 855 25.25 0.9 33.6 60 -5.9 21.3
19:15 1025 30.27 855 25.25 0.9 33.7 58 -6.3 20.6
19:20 1025 30.27 855 25.25 1.1 34 59 -6.1 21.1
19:25 1025 30.27 855 25.25 1.2 34.2 57 -6.4 20.4
19:30 1025 30.27 855 25.25 1.8 35.3 53 -6.7 20
19:35 1025 30.27 855 25.25 1.8 35.3 55 -6.2 20.8
19:40 1025 30.27 855 25.25 1.4 34.4 57 -6.2 20.8
19:45 1025 30.27 855 25.25 1 33.9 58 -6.4 20.5
19:50 1026 30.3 855 25.25 0.9 33.6 58 -6.5 20.3
19:55 1026 30.3 855 25.25 0.9 33.6 57 -6.7 20
20:00 1026 30.3 855 25.25 0.9 33.6 58 -6.6 20.2
20:05 1026 30.3 855 25.25 0.8 33.4 57 -6.7 19.9
20:10 1026 30.3 855 25.25 0.9 33.7 56 -7 19.4
20:15 1026 30.3 855 25.25 1 33.7 56 -6.9 19.6
20:20 1026 30.3 855 25.25 0.9 33.6 56 -7 19.5
20:25 1026 30.3 855 25.25 0.8 33.4 56 -6.9 19.6
20:30 1026 30.3 855 25.25 0.4 32.8 59 -6.7 19.9
20:35 1026 30.3 855 25.25 0 32.1 59 -7 19.4
20:40 1026 30.3 855 25.25 0.3 32.5 57 -7.2 19
20:45 1026 30.3 855 25.25 0.6 33.1 57 -6.9 19.7
20:50 1026 30.3 855 25.25 0.5 33 59 -6.7 20
20:55 1026 30.3 855 25.25 0.4 32.8 58 -6.9 19.6
21:00 1025 30.27 855 25.25 0.5 32.8 58 -6.8 19.7
21:05 1025 30.27 855 25.25 0.4 32.8 57 -7 19.3
21:10 1026 30.3 855 25.25 0.5 32.8 57 -7.1 19.3
21:15 1025 30.27 855 25.25 0.8 33.4 54 -7.4 18.6
21:20 1025 30.27 855 25.25 0.8 33.4 55 -7.3 18.9
21:25 1025 30.27 855 25.25 0.4 32.7 57 -7.2 19
21:30 1025 30.27 855 25.25 0.1 32.1 57 -7.4 18.8
21:35 1025 30.27 854 25.22 -0.1 31.8 58 -7.4 18.7
21:40 1025 30.27 854 25.22 -0.3 31.4 58 -7.5 18.5
21:45 1025 30.27 854 25.22 -0.4 31.2 58 -7.8 18
21:50 1025 30.27 854 25.22 -0.5 31.1 58 -7.8 17.9
21:55 1025 30.27 854 25.22 -0.6 31 58 -7.8 17.9
22:00 1025 30.27 854 25.22 -0.5 31 59 -7.7 18.2
22:05 1025 30.27 854 25.22 -0.3 31.4 58 -7.6 18.3
22:10 1025 30.27 854 25.22 -0.2 31.7 58 -7.5 18.4
22:15 1025 30.27 855 25.25 -0.2 31.7 57 -7.6 18.3
22:20 1025 30.27 854 25.22 0 32.1 56 -7.6 18.3
22:25 1025 30.27 855 25.25 0.2 32.3 56 -7.6 18.4
22:30 1025 30.27 855 25.25 0.1 32.2 56 -7.6 18.3
22:35 1025 30.27 855 25.25 -0.1 31.8 57 -7.5 18.4
22:40 1025 30.27 855 25.25 -0.2 31.7 56 -7.8 17.9
22:45 1025 30.27 855 25.25 0.2 32.3 54 -8.1 17.4
22:50 1025 30.27 855 25.25 0.4 32.8 53 -8 17.6
22:55 1025 30.27 855 25.25 0.5 32.9 52 -8.4 16.9
23:00 1025 30.27 855 25.25 0.5 33 51 -8.4 16.8
23:05 1025 30.27 855 25.25 0.5 32.9 51 -8.4 16.8
23:10 1025 30.27 855 25.25 0.6 33.1 51 -8.5 16.7
23:15 1025 30.27 855 25.25 0.5 32.9 53 -8.1 17.5
23:20 1025 30.27 855 25.25 -0 32 55 -8 17.7
23:25 1025 30.27 855 25.25 -0.4 31.2 57 -8 17.7
23:30 1025 30.27 855 25.25 -0.5 31.1 57 -8.1 17.4
23:35 1025 30.27 855 25.25 -0.4 31.2 56 -8.1 17.5
23:40 1025 30.27 855 25.25 -0.3 31.4 55 -8.2 17.2
23:45 1025 30.27 855 25.25 -0 32 53 -8.6 16.5
23:50 1025 30.27 855 25.25 0.2 32.3 52 -8.6 16.6
23:55 1025 30.27 855 25.25 0.2 32.3 51 -8.8 16.2
24:00 1025 30.27 855 25.25 0.4 32.8 50 -8.9 16